Archival Weather

Chicago O'Hare International

Chicago, Illinois (KORD)

Report from: Thursday, June 23, 2022 8:51 AM CDT
Current time: Sunday, June 26, 2022 12:11 PM CDT

Current weather
Weather history
Weather forecast

Temperature24.4°C (75.9°F)
Dew point13.9°C (57.0°F)
Winds 6 kts (3.1 m/s, 6.9 mph) East (80°)
Visibility10 mi. (16.1 km)
Clouds Few clouds 20,000 ft. (6,096 m)
Scattered clouds 25,000 ft. (7,620 m)
Altimeter30.08 in.Hg (1019 mB)
Relative humidity52 %
Density altitude1,131 ft. (345 m)
Sea-level pressure101.8 kPa (1018 mB, 30.06 in.Hg)
Remarks Automated weather observing station with precipitation discriminator
Flight conditions Visual Meteorological Conditions
Raw dataKORD 231351Z 08006KT 10SM FEW200 SCT250 24/14 A3008 RMK AO2 SLP181 T02440139
An error has occurred. This application may no longer respond until reloaded. Reload 🗙